Terminal Aerodrome Forecast
Issued by NWS Paducah, KY

Home | Current Version | Previous Version | Text Only | Print | Product List | Glossary On
Versions: 1 2 3 4 5 6 7 8 9 10 11 12 13 14 15 16 17 18 19 20 21 22 23
761
FTUS43 KPAH 241120
TAFEVV
TAF
KEVV 241120Z 2412/2512 18012G18KT P6SM SCT025 BKN150
     FM241800 20015G25KT P6SM SCT015 BKN030
      TEMPO 2421/2424 3SM TSRA BKN015CB
     FM250200 29012G20KT P6SM SCT030 BKN100
     FM250600 27012G20KT P6SM BKN030=

USA.gov is the U.S. government's official web portal to all federal, state and local government web resources and services.